Time;durP1;ratioP1;P1;durP2;ratioP2;P2;SDS_P1;SDS_P2;PMS_P1;PMS_P2;Temp;Humidity;BMP_temperature;BMP_pressure;BME280_temperature;BME280_humidity;BME280_pressure;Samples;Min_cycle;Max_cycle;Signal;HPM_P1;HPM_P2
2022/12/17 13:06:49;;;;;;;;;;;;;;;2.68;nan;102796.16;5033631;28;19983;-35
2022/12/17 13:09:14;;;;;;;;;;;;;;;2.70;nan;102796.88;5035460;28;19924;-36
2022/12/17 13:11:41;;;;;;;;;;;;;;;2.76;nan;102800.72;5033784;28;19928;-37
2022/12/17 13:14:12;;;;;;;;;;;;;;;2.81;nan;102803.75;5054829;28;19924;-35
2022/12/17 13:16:44;;;;;;;;;;;;;;;2.83;nan;102803.59;5031893;28;19929;-35
2022/12/17 13:19:30;;;;;;;;;;;;;;;2.86;nan;102814.72;5035880;28;20431;-37
2022/12/17 13:21:56;;;;;;;;;;;;;;;2.92;nan;102815.97;5033870;28;20377;-35
2022/12/17 13:24:23;;;;;;;;;;;;;;;2.93;nan;102821.13;5039390;28;19917;-36
2022/12/17 13:26:48;;;;;;;;;;;;;;;2.94;nan;102824.59;5025280;28;19928;-35
2022/12/17 13:29:17;;;;;;;;;;;;;;;2.93;nan;102828.25;5027235;28;19924;-36
2022/12/17 13:31:46;;;;;;;;;;;;;;;2.96;nan;102830.59;5027137;28;20074;-36
2022/12/17 13:34:15;;;;;;;;;;;;;;;2.94;nan;102829.91;5028748;28;19971;-36
2022/12/17 13:37:03;;;;;;;;;;;;;;;2.88;nan;102830.50;5029964;28;20355;-37
2022/12/17 13:39:31;;;;;;;;;;;;;;;2.80;nan;102833.88;5037465;28;20887;-36
2022/12/17 13:41:57;;;;;;;;;;;;;;;2.72;nan;102836.41;5034124;28;20000;-36
2022/12/17 13:44:24;;;;;;;;;;;;;;;2.64;nan;102842.41;5030451;28;19952;-35
2022/12/17 13:46:51;;;;;;;;;;;;;;;2.58;nan;102850.94;5032057;28;20327;-35
2022/12/17 13:49:18;;;;;;;;;;;;;;;2.57;nan;102849.28;5033797;28;20003;-38
2022/12/17 13:51:43;;;;;;;;;;;;;;;2.59;nan;102851.78;5036836;28;19966;-35
2022/12/17 13:54:16;;;;;;;;;;;;;;;2.59;nan;102854.41;5032742;28;19925;-37
2022/12/17 13:56:43;;;;;;;;;;;;;;;2.54;nan;102852.22;5035134;28;20442;-37
2022/12/17 13:59:19;;;;;;;;;;;;;;;2.53;nan;102853.19;5038747;28;19924;-35
2022/12/17 14:01:46;;;;;;;;;;;;;;;2.52;nan;102861.28;5034672;28;19921;-36
2022/12/17 14:04:38;;;;;;;;;;;;;;;2.54;nan;102867.25;5033312;28;20472;-35
2022/12/17 14:07:04;;;;;;;;;;;;;;;2.58;nan;102869.47;5027388;28;19960;-36
2022/12/17 14:09:32;;;;;;;;;;;;;;;2.59;nan;102875.59;5034214;28;20439;-37
2022/12/17 14:14:46;;;;;;;;;;;;;;;2.58;nan;102873.94;5032939;28;20469;-35
2022/12/17 14:17:20;;;;;;;;;;;;;;;2.54;nan;102868.09;5032230;28;20299;-37
2022/12/17 14:19:46;;;;;;;;;;;;;;;2.51;nan;102872.81;5031066;28;19920;-38
2022/12/17 14:22:37;;;;;;;;;;;;;;;2.48;nan;102881.03;5030215;28;20311;-35
2022/12/17 14:25:04;;;;;;;;;;;;;;;2.47;nan;102884.66;5034231;28;20377;-36
2022/12/17 14:27:31;;;;;;;;;;;;;;;2.49;nan;102888.84;5031297;28;20387;-36
2022/12/17 14:29:57;;;;;;;;;;;;;;;2.56;nan;102889.13;5037178;28;20340;-35
2022/12/17 14:32:30;;;;;;;;;;;;;;;2.60;nan;102891.31;5034669;28;20034;-35
2022/12/17 14:34:55;;;;;;;;;;;;;;;2.61;nan;102886.88;5032260;28;19954;-38
2022/12/17 14:37:22;;;;;;;;;;;;;;;2.60;nan;102880.75;5035465;28;19921;-35
2022/12/17 14:39:47;;;;;;;;;;;;;;;2.64;nan;102882.13;5036478;28;19924;-36
2022/12/17 14:42:24;;;;;;;;;;;;;;;2.69;nan;102885.19;5034960;28;20280;-35
2022/12/17 14:45:00;;;;;;;;;;;;;;;2.76;nan;102892.53;5032771;28;19928;-36
2022/12/17 14:47:27;;;;;;;;;;;;;;;2.81;nan;102898.22;5031197;28;20046;-35
2022/12/17 14:50:11;;;;;;;;;;;;;;;2.82;nan;102900.72;5028639;28;20186;-36
2022/12/17 14:52:38;;;;;;;;;;;;;;;2.85;nan;102895.13;5034586;28;20687;-35
2022/12/17 14:55:23;;;;;;;;;;;;;;;2.88;nan;102897.53;5032359;28;19974;-35
2022/12/17 14:57:49;;;;;;;;;;;;;;;2.96;nan;102897.63;5033634;28;19921;-36
2022/12/17 15:00:14;;;;;;;;;;;;;;;2.96;nan;102896.78;5030121;28;19917;-36
2022/12/17 15:02:41;;;;;;;;;;;;;;;2.96;nan;102891.50;5032057;28;19940;-36
2022/12/17 15:05:11;;;;;;;;;;;;;;;2.97;nan;102903.75;5035407;28;19917;-37
2022/12/17 15:07:37;;;;;;;;;;;;;;;2.96;nan;102897.63;5033595;28;20046;-35
2022/12/17 15:10:08;;;;;;;;;;;;;;;2.97;nan;102909.88;5033884;28;20382;-37
2022/12/17 15:12:33;;;;;;;;;;;;;;;2.91;nan;102909.63;5035006;28;19928;-35
2022/12/17 15:14:59;;;;;;;;;;;;;;;2.87;nan;102903.81;5034075;28;20124;-36
2022/12/17 15:17:24;;;;;;;;;;;;;;;2.89;nan;102911.59;5035836;28;19916;-35
2022/12/17 15:19:49;;;;;;;;;;;;;;;2.94;nan;102912.00;5037991;28;20400;-40
2022/12/17 15:22:15;;;;;;;;;;;;;;;2.97;nan;102915.19;5039897;28;20376;-36
2022/12/17 15:24:41;;;;;;;;;;;;;;;2.99;nan;102920.31;5044164;28;19920;-36
2022/12/17 15:27:08;;;;;;;;;;;;;;;2.98;nan;102916.00;5044913;28;20422;-36
2022/12/17 15:29:33;;;;;;;;;;;;;;;3.00;nan;102919.34;5038429;28;20107;-35
2022/12/17 15:31:59;;;;;;;;;;;;;;;3.02;nan;102917.38;5034752;28;20417;-36
2022/12/17 15:34:24;;;;;;;;;;;;;;;3.03;nan;102924.34;5036499;28;20372;-35
2022/12/17 15:36:49;;;;;;;;;;;;;;;3.04;nan;102921.56;5037793;28;19956;-35
2022/12/17 15:39:15;;;;;;;;;;;;;;;3.04;nan;102921.56;5027141;28;19967;-36
2022/12/17 15:44:24;;;;;;;;;;;;;;;3.09;nan;102926.44;5034570;28;21664;-35
2022/12/17 15:46:50;;;;;;;;;;;;;;;3.08;nan;102913.34;5034523;28;20388;-36
2022/12/17 15:49:15;;;;;;;;;;;;;;;3.10;nan;102924.63;5036431;28;20305;-35
2022/12/17 15:51:40;;;;;;;;;;;;;;;3.11;nan;102921.00;5030071;28;20004;-37
2022/12/17 15:54:06;;;;;;;;;;;;;;;3.13;nan;102934.91;5031988;28;19975;-35
2022/12/17 15:56:31;;;;;;;;;;;;;;;3.16;nan;102940.75;5034258;28;19964;-35
2022/12/17 15:58:57;;;;;;;;;;;;;;;3.18;nan;102937.97;5034591;28;19927;-36
2022/12/17 16:01:23;;;;;;;;;;;;;;;3.16;nan;102943.41;5031838;28;19940;-36
2022/12/17 16:03:51;;;;;;;;;;;;;;;3.16;nan;102946.06;5031201;28;19953;-35
2022/12/17 16:06:16;;;;;;;;;;;;;;;3.20;nan;102954.53;5030931;28;19921;-35
2022/12/17 16:08:42;;;;;;;;;;;;;;;3.19;nan;102955.50;5033698;28;19927;-35
2022/12/17 16:11:11;;;;;;;;;;;;;;;3.17;nan;102950.38;5028960;28;19925;-35
2022/12/17 16:13:37;;;;;;;;;;;;;;;3.20;nan;102957.19;5034300;28;20119;-36
2022/12/17 16:16:02;;;;;;;;;;;;;;;3.20;nan;102952.72;5038234;28;19925;-35
2022/12/17 16:18:28;;;;;;;;;;;;;;;3.24;nan;102956.78;5038540;28;19975;-35
2022/12/17 16:20:53;;;;;;;;;;;;;;;3.21;nan;102959.69;5034657;28;20558;-35
2022/12/17 16:23:19;;;;;;;;;;;;;;;3.23;nan;102962.19;5031013;28;20289;-36
2022/12/17 16:25:44;;;;;;;;;;;;;;;3.29;nan;102964.28;5034470;28;20347;-37
2022/12/17 16:28:09;;;;;;;;;;;;;;;3.24;nan;102964.72;5032047;28;19925;-36
2022/12/17 16:30:35;;;;;;;;;;;;;;;3.21;nan;102965.00;5034156;28;20304;-36
2022/12/17 16:33:00;;;;;;;;;;;;;;;3.23;nan;102968.34;5031636;28;19960;-36
2022/12/17 16:35:27;;;;;;;;;;;;;;;3.21;nan;102965.00;5034509;28;19924;-36
2022/12/17 16:37:52;;;;;;;;;;;;;;;3.20;nan;102968.63;5032855;28;19982;-37
2022/12/17 16:40:18;;;;;;;;;;;;;;;3.21;nan;102972.09;5038120;28;19920;-35
2022/12/17 16:42:43;;;;;;;;;;;;;;;3.21;nan;102970.28;5031282;28;19921;-36
2022/12/17 16:45:09;;;;;;;;;;;;;;;3.23;nan;102967.47;5031302;28;19920;-36
2022/12/17 16:47:34;;;;;;;;;;;;;;;3.24;nan;102974.47;5032723;28;20331;-37
2022/12/17 16:49:59;;;;;;;;;;;;;;;3.27;nan;102990.09;5031074;28;19925;-37
2022/12/17 16:52:25;;;;;;;;;;;;;;;3.28;nan;102989.94;5035738;28;20427;-36
2022/12/17 16:54:50;;;;;;;;;;;;;;;3.31;nan;102987.00;5034520;28;20040;-35
2022/12/17 16:57:15;;;;;;;;;;;;;;;3.34;nan;102997.28;5035621;28;19927;-35
2022/12/17 16:59:41;;;;;;;;;;;;;;;3.38;nan;102991.69;5033634;28;19923;-35
2022/12/17 17:02:11;;;;;;;;;;;;;;;3.41;nan;102994.06;5035322;28;20455;-36
2022/12/17 17:04:38;;;;;;;;;;;;;;;3.43;nan;102997.41;5038894;28;19920;-36
2022/12/17 17:07:03;;;;;;;;;;;;;;;3.45;nan;102998.09;5038054;28;19936;-36
2022/12/17 17:09:28;;;;;;;;;;;;;;;3.44;nan;103002.56;5035704;28;20312;-35
2022/12/17 17:11:55;;;;;;;;;;;;;;;3.41;nan;102991.41;5033765;28;19932;-36
2022/12/17 17:14:21;;;;;;;;;;;;;;;3.43;nan;103000.06;5031917;28;19921;-37
2022/12/17 17:16:46;;;;;;;;;;;;;;;3.42;nan;102998.41;5032276;28;19922;-37
2022/12/17 17:19:11;;;;;;;;;;;;;;;3.44;nan;103001.75;5031333;28;19925;-36
2022/12/17 17:21:38;;;;;;;;;;;;;;;3.47;nan;102990.84;5030559;28;19917;-36
2022/12/17 17:24:03;;;;;;;;;;;;;;;3.48;nan;103003.09;5030933;28;19927;-36
2022/12/17 17:26:31;;;;;;;;;;;;;;;3.45;nan;102995.44;5031557;28;19917;-37
2022/12/17 17:28:56;;;;;;;;;;;;;;;3.46;nan;102997.13;5031831;28;19920;-36
2022/12/17 17:31:22;;;;;;;;;;;;;;;3.44;nan;102997.28;5032594;28;19920;-36
2022/12/17 17:33:48;;;;;;;;;;;;;;;3.44;nan;103007.88;5032890;28;19928;-35
2022/12/17 17:36:17;;;;;;;;;;;;;;;3.45;nan;103009.53;5028891;28;19921;-37
2022/12/17 17:38:42;;;;;;;;;;;;;;;3.45;nan;103009.53;5029592;28;19971;-35
2022/12/17 17:41:08;;;;;;;;;;;;;;;3.45;nan;103014.00;5032219;28;19925;-36
2022/12/17 17:43:34;;;;;;;;;;;;;;;3.46;nan;103013.84;5033483;28;19917;-37
2022/12/17 17:46:03;;;;;;;;;;;;;;;3.46;nan;103018.31;5032964;28;19917;-36
2022/12/17 17:48:29;;;;;;;;;;;;;;;3.45;nan;103024.59;5032997;28;19921;-36
2022/12/17 17:51:03;;;;;;;;;;;;;;;3.45;nan;103027.25;5040180;28;19920;-35
2022/12/17 17:53:28;;;;;;;;;;;;;;;3.45;nan;103025.44;5033056;28;19924;-36
2022/12/17 17:55:54;;;;;;;;;;;;;;;3.40;nan;103027.66;5036004;28;19944;-37
2022/12/17 17:58:20;;;;;;;;;;;;;;;3.39;nan;103033.94;5032889;28;20023;-36
2022/12/17 18:00:45;;;;;;;;;;;;;;;3.34;nan;103037.03;5034116;28;19936;-36
2022/12/17 18:03:10;;;;;;;;;;;;;;;3.33;nan;103031.88;5036312;28;19928;-36
2022/12/17 18:05:36;;;;;;;;;;;;;;;3.33;nan;103038.03;5033355;28;20003;-35
2022/12/17 18:08:02;;;;;;;;;;;;;;;3.36;nan;103044.84;5038002;28;19920;-35
2022/12/17 18:10:28;;;;;;;;;;;;;;;3.38;nan;103045.53;5032751;28;20331;-35
2022/12/17 18:15:37;;;;;;;;;;;;;;;3.39;nan;103055.16;5033957;28;21684;-35
2022/12/17 18:18:03;;;;;;;;;;;;;;;3.38;nan;103050.84;5030356;28;20007;-35
2022/12/17 18:20:28;;;;;;;;;;;;;;;3.39;nan;103049.84;5033161;28;19917;-35
2022/12/17 18:22:53;;;;;;;;;;;;;;;3.37;nan;103054.47;5033261;28;20330;-35
2022/12/17 18:25:19;;;;;;;;;;;;;;;3.37;nan;103050.97;5032637;28;20267;-36
2022/12/17 18:27:44;;;;;;;;;;;;;;;3.29;nan;103060.50;5031786;28;20300;-35
2022/12/17 18:30:10;;;;;;;;;;;;;;;3.26;nan;103058.13;5037082;28;19916;-35
2022/12/17 18:32:35;;;;;;;;;;;;;;;3.27;nan;103061.63;5031584;28;19975;-35
2022/12/17 18:35:00;;;;;;;;;;;;;;;3.29;nan;103060.50;5032715;28;20011;-35
2022/12/17 18:37:26;;;;;;;;;;;;;;;3.31;nan;103058.53;5032715;28;19917;-36
2022/12/17 18:39:51;;;;;;;;;;;;;;;3.32;nan;103059.38;5035504;28;21304;-37
2022/12/17 18:45:01;;;;;;;;;;;;;;;3.29;nan;103071.09;5035537;28;19924;-35
2022/12/17 18:47:26;;;;;;;;;;;;;;;3.25;nan;103069.72;5038521;28;19925;-36
2022/12/17 18:49:52;;;;;;;;;;;;;;;3.22;nan;103075.28;5037834;28;19925;-36
2022/12/17 18:52:17;;;;;;;;;;;;;;;3.18;nan;103068.59;5039997;28;19929;-36
2022/12/17 18:54:43;;;;;;;;;;;;;;;3.17;nan;103071.38;5040371;28;19917;-38
2022/12/17 18:57:09;;;;;;;;;;;;;;;3.17;nan;103077.53;5037112;28;20179;-39
2022/12/17 18:59:34;;;;;;;;;;;;;;;3.17;nan;103080.16;5036236;28;19951;-40
2022/12/17 19:01:59;;;;;;;;;;;;;;;3.17;nan;103092.59;5035463;28;19917;-40
2022/12/17 19:04:25;;;;;;;;;;;;;;;3.19;nan;103088.81;5039625;28;20407;-40
2022/12/17 19:06:52;;;;;;;;;;;;;;;3.21;nan;103092.16;5036414;28;20299;-39
2022/12/17 19:09:22;;;;;;;;;;;;;;;3.20;nan;103101.06;5036862;28;19921;-36
2022/12/17 19:11:48;;;;;;;;;;;;;;;3.20;nan;103095.78;5034784;28;19925;-39
2022/12/17 19:14:16;;;;;;;;;;;;;;;3.24;nan;103101.66;5035522;28;19920;-36
2022/12/17 19:16:41;;;;;;;;;;;;;;;3.23;nan;103092.88;5035451;28;20287;-37
2022/12/17 19:19:09;;;;;;;;;;;;;;;3.22;nan;103091.16;5037009;28;19945;-37
2022/12/17 19:21:35;;;;;;;;;;;;;;;3.23;nan;103089.34;5035011;28;19923;-39
2022/12/17 19:24:02;;;;;;;;;;;;;;;3.27;nan;103094.25;5036320;28;19917;-43
2022/12/17 19:26:28;;;;;;;;;;;;;;;3.27;nan;103096.91;5039459;28;19925;-38
2022/12/17 19:28:55;;;;;;;;;;;;;;;3.28;nan;103095.91;5038726;28;19955;-40
2022/12/17 19:31:22;;;;;;;;;;;;;;;3.26;nan;103094.41;5036252;28;20307;-35
2022/12/17 19:33:48;;;;;;;;;;;;;;;3.28;nan;103097.72;5035116;28;19978;-38
2022/12/17 19:36:17;;;;;;;;;;;;;;;3.26;nan;103097.03;5034012;28;19917;-39
2022/12/17 19:38:42;;;;;;;;;;;;;;;3.21;nan;103096.59;5038710;28;19920;-39
2022/12/17 19:41:15;;;;;;;;;;;;;;;3.17;nan;103098.72;5038278;28;19927;-41
2022/12/17 19:43:41;;;;;;;;;;;;;;;3.14;nan;103101.66;5036857;28;19921;-38
2022/12/17 19:46:08;;;;;;;;;;;;;;;3.14;nan;103106.13;5034921;28;19917;-39
2022/12/17 19:48:35;;;;;;;;;;;;;;;3.12;nan;103114.22;5040151;28;20438;-39
2022/12/17 19:51:00;;;;;;;;;;;;;;;3.12;nan;103116.84;5037409;28;19987;-43
2022/12/17 19:53:26;;;;;;;;;;;;;;;3.11;nan;103117.00;5034622;28;19932;-39
2022/12/17 19:55:53;;;;;;;;;;;;;;;3.06;nan;103117.44;5033984;28;19924;-36
2022/12/17 19:58:18;;;;;;;;;;;;;;;3.05;nan;103123.66;5022457;28;20062;-38
2022/12/17 20:00:44;;;;;;;;;;;;;;;3.00;nan;103132.03;5035811;28;20007;-38
2022/12/17 20:03:09;;;;;;;;;;;;;;;3.00;nan;103136.50;5036061;28;19917;-40
2022/12/17 20:05:34;;;;;;;;;;;;;;;2.93;nan;103140.69;5022756;28;20062;-39
2022/12/17 20:07:59;;;;;;;;;;;;;;;2.91;nan;103148.78;5040309;28;20004;-41
2022/12/17 20:10:25;;;;;;;;;;;;;;;2.91;nan;103155.91;5042954;28;20302;-41
2022/12/17 20:12:50;;;;;;;;;;;;;;;2.90;nan;103151.56;5040777;28;20015;-37
2022/12/17 20:15:16;;;;;;;;;;;;;;;2.89;nan;103156.03;5040515;28;19928;-42
2022/12/17 20:17:41;;;;;;;;;;;;;;;2.88;nan;103164.13;5033650;28;20008;-39
2022/12/17 20:20:07;;;;;;;;;;;;;;;2.88;nan;103166.78;5037432;28;19925;-39
2022/12/17 20:22:32;;;;;;;;;;;;;;;2.82;nan;103159.34;5037449;28;19921;-42
2022/12/17 20:25:00;;;;;;;;;;;;;;;2.82;nan;103169.94;5033227;28;19921;-42
2022/12/17 20:27:25;;;;;;;;;;;;;;;2.71;nan;103171.75;5034314;28;20293;-37
2022/12/17 20:29:51;;;;;;;;;;;;;;;2.71;nan;103182.34;5035225;28;19932;-37
2022/12/17 20:32:19;;;;;;;;;;;;;;;2.69;nan;103180.78;5038463;28;19931;-41
2022/12/17 20:34:44;;;;;;;;;;;;;;;2.66;nan;103181.91;5033425;28;19924;-39
2022/12/17 20:37:10;;;;;;;;;;;;;;;2.66;nan;103176.59;5034179;28;19917;-36
2022/12/17 20:39:35;;;;;;;;;;;;;;;2.70;nan;103180.69;5033250;28;20432;-38
2022/12/17 20:42:00;;;;;;;;;;;;;;;2.69;nan;103184.31;5039474;28;20047;-40
2022/12/17 20:44:26;;;;;;;;;;;;;;;2.67;nan;103185.38;5032358;28;20011;-36
2022/12/17 20:46:51;;;;;;;;;;;;;;;2.62;nan;103201.69;5033897;28;20025;-38
2022/12/17 20:49:17;;;;;;;;;;;;;;;2.55;nan;103197.91;5033063;28;19920;-38
2022/12/17 20:51:42;;;;;;;;;;;;;;;2.51;nan;103207.06;5038166;28;19932;-41
2022/12/17 20:54:08;;;;;;;;;;;;;;;2.48;nan;103210.00;5038026;28;19921;-40
2022/12/17 20:56:33;;;;;;;;;;;;;;;2.47;nan;103202.19;5031180;28;20024;-40
2022/12/17 20:59:05;;;;;;;;;;;;;;;2.45;nan;103215.56;5033658;28;20486;-36
2022/12/17 21:01:32;;;;;;;;;;;;;;;2.45;nan;103210.28;5035716;28;19917;-40
2022/12/17 21:03:58;;;;;;;;;;;;;;;2.42;nan;103208.72;5037258;28;19927;-42
2022/12/17 21:06:31;;;;;;;;;;;;;;;2.45;nan;103206.78;5032201;28;20372;-36
2022/12/17 21:08:57;;;;;;;;;;;;;;;2.47;nan;103203.03;5032757;28;19967;-42
2022/12/17 21:11:26;;;;;;;;;;;;;;;2.51;nan;103206.25;5038820;28;20368;-37
2022/12/17 21:13:52;;;;;;;;;;;;;;;2.51;nan;103209.72;5034699;28;19921;-38
2022/12/17 21:16:20;;;;;;;;;;;;;;;2.48;nan;103201.22;5034640;28;20015;-37
2022/12/17 21:18:46;;;;;;;;;;;;;;;2.45;nan;103204.97;5033119;28;20284;-38
2022/12/17 21:21:12;;;;;;;;;;;;;;;2.46;nan;103203.16;5036266;28;19916;-42
2022/12/17 21:23:38;;;;;;;;;;;;;;;2.51;nan;103199.13;5037916;28;20266;-36
2022/12/17 21:26:08;;;;;;;;;;;;;;;2.41;nan;103204.41;5039242;28;19947;-39
2022/12/17 21:28:35;;;;;;;;;;;;;;;2.40;nan;103209.84;5031124;28;19924;-37
2022/12/17 21:31:01;;;;;;;;;;;;;;;2.38;nan;103215.28;5040291;28;19917;-40
2022/12/17 21:33:26;;;;;;;;;;;;;;;2.39;nan;103213.47;5035223;28;19931;-38
2022/12/17 21:36:02;;;;;;;;;;;;;;;2.38;nan;103217.91;5038409;28;20592;-40
2022/12/17 21:38:27;;;;;;;;;;;;;;;2.36;nan;103205.78;5035586;28;19924;-38
2022/12/17 21:40:53;;;;;;;;;;;;;;;2.35;nan;103214.72;5036823;28;19924;-36
2022/12/17 21:43:18;;;;;;;;;;;;;;;2.35;nan;103210.25;5034141;28;19928;-39
2022/12/17 21:45:44;;;;;;;;;;;;;;;2.33;nan;103203.38;5031877;28;20352;-37
2022/12/17 21:48:09;;;;;;;;;;;;;;;2.36;nan;103203.16;5031821;28;20306;-41
2022/12/17 21:50:44;;;;;;;;;;;;;;;2.31;nan;103207.97;5036235;28;20303;-41
2022/12/17 21:53:10;;;;;;;;;;;;;;;2.26;nan;103210.19;5037140;28;20369;-40
2022/12/17 21:55:36;;;;;;;;;;;;;;;2.27;nan;103214.50;5036490;28;19917;-39
2022/12/17 21:58:02;;;;;;;;;;;;;;;2.28;nan;103216.19;5033515;28;20416;-36
2022/12/17 22:00:27;;;;;;;;;;;;;;;2.27;nan;103222.47;5034589;28;19921;-38
2022/12/17 22:02:52;;;;;;;;;;;;;;;2.27;nan;103225.09;5037659;28;20013;-41
2022/12/17 22:05:18;;;;;;;;;;;;;;;2.26;nan;103232.19;5034132;28;20038;-41
2022/12/17 22:07:43;;;;;;;;;;;;;;;2.26;nan;103231.34;5034649;28;20019;-39
2022/12/17 22:10:08;;;;;;;;;;;;;;;2.27;nan;103238.31;5034035;28;20063;-40
2022/12/17 22:15:17;;;;;;;;;;;;;;;2.19;nan;103239.00;5037937;28;19966;-37
2022/12/17 22:17:43;;;;;;;;;;;;;;;2.22;nan;103245.81;5034122;28;20372;-41
2022/12/17 22:20:08;;;;;;;;;;;;;;;2.24;nan;103251.81;5035047;28;20350;-39
2022/12/17 22:22:34;;;;;;;;;;;;;;;2.25;nan;103254.34;5033636;28;20007;-37
2022/12/17 22:24:59;;;;;;;;;;;;;;;2.26;nan;103258.66;5036199;28;19929;-41
2022/12/17 22:27:25;;;;;;;;;;;;;;;2.31;nan;103261.72;5037803;28;19924;-40
2022/12/17 22:35:18;;;;;;;;;;;;;;;2.09;nan;103262.75;5034930;28;19932;-39
2022/12/17 22:37:43;;;;;;;;;;;;;;;2.10;nan;103261.78;5026946;28;20459;-40
2022/12/17 22:40:09;;;;;;;;;;;;;;;2.06;nan;103270.09;5028857;28;19921;-40
2022/12/17 22:45:18;;;;;;;;;;;;;;;2.05;nan;103273.72;5035485;28;20372;-40
2022/12/17 22:47:44;;;;;;;;;;;;;;;2.02;nan;103277.47;5035950;28;19924;-37
2022/12/17 22:50:09;;;;;;;;;;;;;;;1.95;nan;103275.44;5038727;28;20383;-36
2022/12/17 22:52:34;;;;;;;;;;;;;;;1.87;nan;103276.09;5030537;28;19928;-36
2022/12/17 22:55:00;;;;;;;;;;;;;;;1.78;nan;103276.88;5036135;28;19924;-39
2022/12/17 22:57:25;;;;;;;;;;;;;;;1.76;nan;103281.44;5035077;28;19920;-39
2022/12/17 22:59:50;;;;;;;;;;;;;;;1.78;nan;103276.88;5035382;28;19917;-41
2022/12/17 23:02:16;;;;;;;;;;;;;;;1.78;nan;103276.88;5031514;28;20214;-44
2022/12/17 23:04:41;;;;;;;;;;;;;;;1.78;nan;103282.16;5034889;28;19925;-37
2022/12/17 23:07:07;;;;;;;;;;;;;;;1.78;nan;103290.06;5032119;28;20380;-37
2022/12/17 23:09:32;;;;;;;;;;;;;;;1.78;nan;103298.00;5029341;28;19948;-37
2022/12/17 23:12:49;;;;;;;;;;;;;;;1.80;nan;103304.03;5037430;28;20445;-38
2022/12/17 23:14:43;;;;;;;;;;;;;;;1.82;nan;103299.47;5028356;28;19921;-38
2022/12/17 23:17:08;;;;;;;;;;;;;;;1.81;nan;103305.72;5031421;28;20470;-36
2022/12/17 23:19:33;;;;;;;;;;;;;;;1.83;nan;103297.66;5036841;28;19923;-36
2022/12/17 23:21:59;;;;;;;;;;;;;;;1.86;nan;103307.97;5029448;28;19975;-37
2022/12/17 23:24:24;;;;;;;;;;;;;;;1.77;nan;103299.81;5033217;28;19927;-37
2022/12/17 23:26:50;;;;;;;;;;;;;;;1.71;nan;103300.34;5033956;28;20304;-38
2022/12/17 23:29:15;;;;;;;;;;;;;;;1.69;nan;103293.50;5031595;28;19921;-36
2022/12/17 23:31:40;;;;;;;;;;;;;;;1.65;nan;103289.44;5034623;28;19929;-37
2022/12/17 23:34:06;;;;;;;;;;;;;;;1.57;nan;103298.00;5032110;28;19925;-37
2022/12/17 23:36:32;;;;;;;;;;;;;;;1.53;nan;103301.84;5036934;28;19927;-38
2022/12/17 23:38:57;;;;;;;;;;;;;;;1.54;nan;103300.06;5033177;28;19921;-36
2022/12/17 23:41:27;;;;;;;;;;;;;;;1.56;nan;103300.75;5034739;28;19920;-39
2022/12/17 23:43:52;;;;;;;;;;;;;;;1.52;nan;103301.03;5036519;28;19959;-39
2022/12/17 23:46:18;;;;;;;;;;;;;;;1.56;nan;103312.16;5038080;28;19957;-37
2022/12/17 23:48:44;;;;;;;;;;;;;;;1.54;nan;103300.88;5036271;28;20280;-41
2022/12/17 23:51:10;;;;;;;;;;;;;;;1.51;nan;103304.63;5036418;28;20218;-35
2022/12/17 23:53:36;;;;;;;;;;;;;;;1.52;nan;103302.81;5035990;28;19925;-39
2022/12/17 23:56:12;;;;;;;;;;;;;;;1.48;nan;103307.53;5036855;28;19994;-38
2022/12/17 23:58:39;;;;;;;;;;;;;;;1.45;nan;103310.44;5038875;28;20311;-39
